Time;durP1;ratioP1;P1;durP2;ratioP2;P2;SDS_P1;SDS_P2;PMS_P1;PMS_P2;Temp;Humidity;BMP_temperature;BMP_pressure;BME280_temperature;BME280_humidity;BME280_pressure;Samples;Min_cycle;Max_cycle;Signal;HPM_P1;HPM_P2
2023/07/21 00:03:46;;;;;;;24.45;19.50;;;;;;;11.00;100.00;101099.00;10440595;28;20041;-80
2023/07/21 00:08:46;;;;;;;22.20;18.77;;;;;;;10.97;100.00;101106.69;10403751;28;20041;-80
2023/07/21 00:13:47;;;;;;;23.05;20.17;;;;;;;10.95;100.00;101103.09;10404955;28;20485;-81
2023/07/21 00:18:48;;;;;;;18.48;15.77;;;;;;;10.94;100.00;101107.47;10443714;28;20032;-79
2023/07/21 00:23:49;;;;;;;19.45;15.68;;;;;;;10.97;100.00;101099.75;10423474;28;20033;-80
2023/07/21 00:28:49;;;;;;;20.02;16.02;;;;;;;11.02;100.00;101094.72;10399597;28;20061;-80
2023/07/21 00:33:50;;;;;;;20.67;15.95;;;;;;;11.06;100.00;101093.19;10427373;28;20498;-80
2023/07/21 00:38:51;;;;;;;18.00;14.93;;;;;;;11.05;100.00;101080.91;10455812;28;20076;-80
2023/07/21 00:43:51;;;;;;;22.95;16.67;;;;;;;11.06;100.00;101088.81;10506012;27;20140;-80
2023/07/21 00:48:52;;;;;;;17.20;14.63;;;;;;;11.06;100.00;101077.47;10482826;28;20369;-80
2023/07/21 00:53:53;;;;;;;17.45;15.50;;;;;;;11.04;100.00;101072.13;10461122;28;20056;-79
2023/07/21 00:58:53;;;;;;;19.73;15.45;;;;;;;11.01;100.00;101067.66;10501984;28;20136;-80
2023/07/21 01:03:54;;;;;;;23.20;15.52;;;;;;;11.02;100.00;101068.53;10463854;28;20396;-81
2023/07/21 01:08:56;;;;;;;22.52;16.75;;;;;;;11.04;100.00;101059.03;10481286;28;20569;-80
2023/07/21 01:13:56;;;;;;;24.03;18.97;;;;;;;11.09;100.00;101057.53;10445347;28;20044;-81
2023/07/21 01:18:57;;;;;;;28.98;23.40;;;;;;;11.12;100.00;101052.44;10480550;28;20286;-80
2023/07/21 01:24:09;;;;;;;31.70;24.65;;;;;;;11.17;100.00;101039.59;10480459;28;20389;-80
2023/07/21 01:29:10;;;;;;;;;;;;;;;11.23;100.00;101039.88;10411593;28;20041;-78
2023/07/21 01:34:11;;;;;;;31.10;23.05;;;;;;;11.16;100.00;101043.91;10442009;28;20377;-80
2023/07/21 01:39:12;;;;;;;43.25;24.90;;;;;;;11.10;100.00;101030.53;10439900;28;20045;-80
2023/07/21 01:44:12;;;;;;;32.28;23.73;;;;;;;11.07;100.00;101033.00;10438713;28;20116;-80
2023/07/21 01:49:15;;;;;;;35.75;25.58;;;;;;;11.12;100.00;101026.25;10419225;28;20131;-80
2023/07/21 01:54:25;;;;;;;34.85;28.45;;;;;;;11.05;100.00;101021.53;10446292;28;20080;-80
2023/07/21 01:59:26;;;;;;;40.85;28.35;;;;;;;11.03;100.00;101015.34;10448109;28;20568;-80
2023/07/21 02:04:26;;;;;;;35.40;26.42;;;;;;;11.02;100.00;101018.78;10419398;28;20116;-80
2023/07/21 02:09:27;;;;;;;38.53;27.95;;;;;;;10.92;100.00;101009.59;10445841;28;20037;-80
2023/07/21 02:14:27;;;;;;;39.83;30.35;;;;;;;10.83;100.00;101014.38;10447396;28;20033;-80
2023/07/21 02:19:28;;;;;;;35.50;28.45;;;;;;;10.72;100.00;101011.22;10444407;28;20383;-81
2023/07/21 02:24:28;;;;;;;45.08;34.03;;;;;;;10.64;100.00;101010.84;10442400;28;20044;-81
2023/07/21 02:29:29;;;;;;;52.45;33.83;;;;;;;10.66;100.00;101003.06;10443751;28;20037;-81
2023/07/21 02:34:29;;;;;;;45.20;33.33;;;;;;;10.67;100.00;101011.00;10465223;28;20040;-80
2023/07/21 02:39:32;;;;;;;48.47;36.08;;;;;;;10.60;100.00;101005.38;10460691;28;20498;-80
2023/07/21 02:44:32;;;;;;;54.37;35.30;;;;;;;10.56;100.00;101001.72;10422261;28;20041;-80
2023/07/21 02:49:33;;;;;;;50.65;35.78;;;;;;;10.43;100.00;101000.19;10432992;28;20032;-81
2023/07/21 02:54:36;;;;;;;60.95;40.70;;;;;;;10.46;100.00;100994.25;10441630;28;20037;-80
2023/07/21 02:59:37;;;;;;;58.30;37.17;;;;;;;10.36;100.00;100996.34;10433820;28;20048;-81
2023/07/21 03:04:42;;;;;;;51.10;36.20;;;;;;;10.20;100.00;100994.66;10444307;28;20045;-81
2023/07/21 03:09:42;;;;;;;56.83;40.55;;;;;;;10.26;100.00;100987.13;10448245;28;20064;-80
2023/07/21 03:14:43;;;;;;;59.22;40.13;;;;;;;10.31;100.00;100990.00;10443329;28;20071;-80
2023/07/21 03:19:44;;;;;;;53.53;39.58;;;;;;;10.23;100.00;100992.22;10421431;28;20068;-80
2023/07/21 03:24:44;;;;;;;71.75;49.78;;;;;;;10.24;100.00;100982.66;10444348;28;20045;-79
2023/07/21 03:29:46;;;;;;;73.38;48.42;;;;;;;10.24;100.00;100985.28;10444173;28;20036;-81
2023/07/21 03:34:51;;;;;;;64.40;45.95;;;;;;;10.21;100.00;100986.00;10443272;28;20086;-80
2023/07/21 03:39:52;;;;;;;65.57;49.05;;;;;;;10.21;100.00;100980.78;10400807;28;20079;-81
2023/07/21 03:44:52;;;;;;;72.45;48.53;;;;;;;10.26;100.00;100974.06;10415535;28;20041;-81
2023/07/21 03:49:53;;;;;;;66.63;45.75;;;;;;;10.32;100.00;100973.47;10442432;28;20041;-81
2023/07/21 03:54:54;;;;;;;64.25;45.70;;;;;;;10.26;100.00;100975.78;10443107;28;20147;-81
2023/07/21 03:59:54;;;;;;;77.47;47.42;;;;;;;10.18;100.00;100964.03;10408946;28;20552;-81
2023/07/21 04:04:55;;;;;;;66.70;46.50;;;;;;;10.10;100.00;100972.38;10432210;28;20114;-81
2023/07/21 04:09:56;;;;;;;68.22;45.22;;;;;;;10.13;100.00;100967.31;10438922;28;20573;-80
2023/07/21 04:14:57;;;;;;;68.07;47.17;;;;;;;10.12;100.00;100965.53;10423888;28;20094;-80
2023/07/21 04:19:58;;;;;;;63.38;43.63;;;;;;;10.11;100.00;100957.56;10434060;28;20546;-79
2023/07/21 04:24:58;;;;;;;68.15;47.25;;;;;;;10.15;100.00;100956.91;10468709;28;20122;-80
2023/07/21 04:29:59;;;;;;;80.97;48.63;;;;;;;10.32;100.00;100951.63;10439996;28;20536;-80
2023/07/21 04:34:59;;;;;;;68.95;47.05;;;;;;;10.47;100.00;100957.66;10439746;28;20481;-80
2023/07/21 04:40:00;;;;;;;78.22;49.60;;;;;;;10.72;100.00;100959.78;10437685;28;20124;-80
2023/07/21 04:45:01;;;;;;;80.63;51.35;;;;;;;10.97;100.00;100944.34;10437970;28;20501;-80
2023/07/21 04:50:01;;;;;;;67.03;45.13;;;;;;;11.13;100.00;100949.47;10424021;28;20043;-80
2023/07/21 04:55:02;;;;;;;65.32;45.85;;;;;;;11.15;100.00;100952.16;10437372;28;20120;-81
2023/07/21 05:00:03;;;;;;;58.92;41.53;;;;;;;11.17;100.00;100950.53;10441133;28;20045;-80
2023/07/21 05:05:04;;;;;;;60.33;43.25;;;;;;;11.25;100.00;100941.28;10435942;28;20389;-80
2023/07/21 05:10:05;;;;;;;55.83;42.05;;;;;;;11.31;100.00;100936.34;10438495;28;20120;-80
2023/07/21 05:15:06;;;;;;;62.72;41.28;;;;;;;11.43;100.00;100943.84;10438089;28;20489;-80
2023/07/21 05:20:07;;;;;;;52.67;39.65;;;;;;;11.60;100.00;100939.38;10438639;28;20548;-80
2023/07/21 05:25:11;;;;;;;47.85;35.17;;;;;;;12.02;100.00;100940.31;10445008;28;20029;-81
2023/07/21 05:30:13;;;;;;;46.10;34.63;;;;;;;12.48;100.00;100941.34;10429102;28;20068;-81
2023/07/21 05:35:14;;;;;;;31.55;26.33;;;;;;;12.55;100.00;100940.75;10447078;28;20106;-81
2023/07/21 05:40:14;;;;;;;28.52;22.42;;;;;;;12.86;100.00;100927.97;10447757;28;20108;-80
2023/07/21 05:45:15;;;;;;;24.23;20.30;;;;;;;13.44;100.00;100924.06;10450326;28;20168;-80
2023/07/21 05:50:17;;;;;;;19.55;15.73;;;;;;;14.10;100.00;100929.88;10445804;28;20061;-80
2023/07/21 05:55:18;;;;;;;16.10;14.27;;;;;;;14.96;100.00;100923.88;10444482;28;20032;-80
2023/07/21 06:00:18;;;;;;;15.77;13.32;;;;;;;16.03;100.00;100894.34;10485423;28;20073;-80
2023/07/21 06:05:19;;;;;;;14.87;13.13;;;;;;;16.66;100.00;100826.28;10483716;28;20051;-77
2023/07/21 06:10:19;;;;;;;12.83;11.17;;;;;;;17.77;100.00;100810.84;10466357;28;20032;-77
2023/07/21 06:15:20;;;;;;;14.90;13.07;;;;;;;18.73;100.00;100827.34;10459754;28;20033;-77
2023/07/21 06:20:22;;;;;;;13.77;11.23;;;;;;;18.76;100.00;100824.72;10465561;28;20045;-77
2023/07/21 06:25:22;;;;;;;14.77;13.20;;;;;;;19.16;100.00;100837.59;10445596;28;20075;-77
2023/07/21 06:30:23;;;;;;;13.70;11.70;;;;;;;19.84;100.00;100854.25;10429272;28;20048;-77
2023/07/21 06:35:24;;;;;;;16.03;13.30;;;;;;;20.06;100.00;100858.03;10432276;28;20123;-76
2023/07/21 06:40:25;;;;;;;14.60;12.55;;;;;;;20.73;100.00;100878.88;10418378;28;20053;-76
2023/07/21 06:45:26;;;;;;;13.00;11.63;;;;;;;21.70;100.00;100878.41;10435312;28;20400;-76
2023/07/21 06:50:26;;;;;;;13.90;12.50;;;;;;;22.37;100.00;100883.75;10412467;28;20175;-77
2023/07/21 06:55:27;;;;;;;14.70;10.87;;;;;;;22.90;100.00;100883.66;10431143;28;20044;-77
2023/07/21 07:00:27;;;;;;;15.37;11.63;;;;;;;22.72;100.00;100889.06;10443977;28;20071;-76
2023/07/21 07:05:28;;;;;;;15.30;13.73;;;;;;;22.34;100.00;100897.97;10428636;28;20069;-77
2023/07/21 07:10:29;;;;;;;15.45;12.13;;;;;;;21.22;100.00;100884.44;10435239;28;20040;-78
2023/07/21 07:15:30;;;;;;;16.23;13.17;;;;;;;20.97;100.00;100884.34;10421278;28;20500;-78
2023/07/21 07:20:30;;;;;;;16.57;13.83;;;;;;;20.76;100.00;100881.53;10438129;28;20045;-78
2023/07/21 07:25:31;;;;;;;19.63;12.77;;;;;;;21.94;100.00;100885.53;10436781;28;20064;-81
2023/07/21 07:30:33;;;;;;;13.30;10.70;;;;;;;22.55;100.00;100883.75;10444126;28;20495;-77
2023/07/21 07:35:34;;;;;;;13.52;11.07;;;;;;;22.41;100.00;100888.19;10426207;28;20056;-78
2023/07/21 07:40:35;;;;;;;12.27;10.30;;;;;;;21.93;100.00;100893.53;10443289;28;20127;-77
2023/07/21 07:45:38;;;;;;;14.53;9.57;;;;;;;21.50;100.00;100897.84;10440759;28;20047;-77
2023/07/21 07:50:40;;;;;;;11.35;10.05;;;;;;;21.82;100.00;100902.41;10443694;28;20374;-78
2023/07/21 07:55:41;;;;;;;9.02;7.63;;;;;;;22.62;100.00;100894.41;10437593;28;20040;-75
2023/07/21 08:00:43;;;;;;;11.18;9.32;;;;;;;22.63;100.00;100896.19;10426356;28;20040;-77
2023/07/21 08:05:43;;;;;;;12.10;9.07;;;;;;;23.92;100.00;100898.31;10442239;28;20428;-77
2023/07/21 08:10:44;;;;;;;10.10;8.07;;;;;;;25.59;88.87;100893.94;10440825;28;20123;-77
2023/07/21 08:15:45;;;;;;;13.32;10.32;;;;;;;24.51;94.66;100893.38;10404626;28;20481;-76
2023/07/21 08:20:45;;;;;;;15.30;10.10;;;;;;;24.28;92.08;100901.63;10425085;28;20131;-75
2023/07/21 08:25:46;;;;;;;9.90;8.13;;;;;;;25.12;89.54;100890.09;10419931;28;20554;-75
2023/07/21 08:30:47;;;;;;;8.40;7.53;;;;;;;26.14;79.78;100890.41;10442542;28;20433;-75
2023/07/21 08:35:48;;;;;;;11.83;9.43;;;;;;;26.53;75.75;100893.34;10438675;28;20624;-76
2023/07/21 08:40:49;;;;;;;9.95;6.90;;;;;;;27.52;72.72;100883.31;10428314;28;20513;-76
2023/07/21 08:45:50;;;;;;;8.00;6.18;;;;;;;26.94;70.60;100891.69;10408175;28;20542;-76
2023/07/21 08:50:53;;;;;;;12.17;6.67;;;;;;;24.16;80.93;100895.50;10414725;28;20098;-77
2023/07/21 08:55:55;;;;;;;9.13;6.88;;;;;;;24.37;80.50;100888.19;10422837;28;20435;-76
2023/07/21 09:00:56;;;;;;;11.43;7.68;;;;;;;25.05;79.55;100884.81;10432144;28;20040;-76
2023/07/21 09:05:57;;;;;;;11.87;6.90;;;;;;;25.40;79.22;100871.84;10419845;28;20045;-76
2023/07/21 09:10:59;;;;;;;;;;;;;;;26.45;69.97;100876.50;10422701;28;20790;-76
2023/07/21 09:16:05;;;;;;;9.23;8.20;;;;;;;27.48;67.37;100873.50;10446822;28;19928;-76
2023/07/21 09:21:06;;;;;;;15.35;13.75;;;;;;;25.32;68.60;100880.00;10430320;28;20124;-77
2023/07/21 09:26:07;;;;;;;;;;;;;;;24.04;74.54;100880.44;10440111;28;20128;-76
2023/07/21 09:31:08;;;;;;;19.10;16.60;;;;;;;24.54;75.21;100877.31;10423729;28;19925;-77
2023/07/21 09:36:10;;;;;;;17.70;15.93;;;;;;;24.90;71.05;100874.28;10432379;28;20037;-81
2023/07/21 09:41:14;;;;;;;16.08;14.35;;;;;;;24.90;74.70;100861.78;10402604;28;20044;-82
2023/07/21 09:46:15;;;;;;;20.55;14.40;;;;;;;26.08;75.67;100868.16;10473420;28;20063;-77
2023/07/21 09:51:16;;;;;;;21.07;15.97;;;;;;;25.64;72.73;100869.75;10446903;28;20741;-75
2023/07/21 09:56:16;;;;;;;16.48;13.90;;;;;;;24.78;73.66;100864.59;10479000;28;20503;-76
2023/07/21 10:01:18;;;;;;;16.63;14.83;;;;;;;24.25;76.76;100866.91;10472131;28;20035;-75
2023/07/21 10:06:19;;;;;;;16.60;14.45;;;;;;;24.38;78.73;100867.66;10431955;28;20045;-75
2023/07/21 10:11:19;;;;;;;19.23;17.23;;;;;;;22.97;79.91;100866.75;10426289;28;20068;-76
2023/07/21 10:16:21;;;;;;;13.47;11.83;;;;;;;21.84;85.96;100870.41;10438352;28;20033;-76
2023/07/21 10:21:21;;;;;;;14.57;12.45;;;;;;;22.01;88.93;100870.44;10436907;28;20051;-77
2023/07/21 10:26:22;;;;;;;14.47;10.60;;;;;;;24.71;79.10;100860.19;10442914;28;20043;-76
2023/07/21 10:36:23;;;;;;;10.40;9.40;;;;;;;28.42;62.65;100865.00;10440074;28;20377;-77
2023/07/21 10:41:23;;;;;;;9.10;6.70;;;;;;;29.89;58.47;100848.97;10443612;28;20136;-80
2023/07/21 10:46:24;;;;;;;11.40;8.73;;;;;;;26.51;63.81;100857.59;10439493;28;20120;-77
2023/07/21 10:51:25;;;;;;;11.20;8.43;;;;;;;23.61;69.15;100856.66;10432592;28;20477;-77
2023/07/21 10:56:25;;;;;;;9.63;7.37;;;;;;;21.71;80.37;100854.41;10444826;28;20045;-80
2023/07/21 11:01:26;;;;;;;8.60;6.50;;;;;;;20.79;88.55;100847.03;10442340;28;20043;-77
2023/07/21 11:06:27;;;;;;;6.47;4.97;;;;;;;20.33;100.00;100843.16;10444003;28;20102;-77
2023/07/21 11:11:27;;;;;;;12.27;7.72;;;;;;;20.30;100.00;100845.81;10454880;28;20044;-77
2023/07/21 11:16:28;;;;;;;12.87;6.77;;;;;;;20.30;100.00;100840.50;10420500;28;20943;-78
2023/07/21 11:21:28;;;;;;;9.07;7.10;;;;;;;20.31;100.00;100847.59;10411411;28;20037;-77
2023/07/21 11:26:29;;;;;;;11.13;8.20;;;;;;;20.33;100.00;100851.13;10423191;28;20033;-77
2023/07/21 11:31:33;;;;;;;9.35;7.82;;;;;;;20.31;100.00;100850.25;10442071;28;20451;-78
2023/07/21 11:36:34;;;;;;;12.60;7.30;;;;;;;20.22;100.00;100856.34;10467946;28;20451;-77
2023/07/21 11:41:48;;;;;;;12.65;8.45;;;;;;;19.81;100.00;100872.81;10480772;28;20037;-77
2023/07/21 11:47:07;;;;;;;9.98;7.63;;;;;;;19.06;100.00;100882.59;10463152;28;20396;-78
2023/07/21 11:52:09;;;;;;;15.95;13.15;;;;;;;17.54;100.00;100881.88;10508532;28;20123;-77
2023/07/21 11:57:10;;;;;;;14.40;10.67;;;;;;;16.12;100.00;100878.75;10449818;28;20113;-79
2023/07/21 12:02:13;;;;;;;12.13;9.93;;;;;;;15.33;100.00;100886.28;10496424;28;20071;-82
2023/07/21 12:07:14;;;;;;;26.02;15.27;;;;;;;14.92;100.00;100900.03;10485526;28;20131;-78
2023/07/21 12:12:14;;;;;;;13.70;10.57;;;;;;;14.59;100.00;100914.81;10439248;28;20115;-78
2023/07/21 12:17:15;;;;;;;11.80;9.30;;;;;;;14.50;100.00;100938.19;10438470;28;20049;-79
2023/07/21 12:22:15;;;;;;;10.13;8.88;;;;;;;14.45;100.00;100956.50;10429003;28;20044;-80
2023/07/21 12:27:16;;;;;;;15.55;8.50;;;;;;;14.50;100.00;100956.63;10438532;28;20048;-80
2023/07/21 12:32:16;;;;;;;15.15;12.18;;;;;;;14.66;100.00;100972.09;10437140;28;20375;-80
2023/07/21 12:37:17;;;;;;;21.58;16.00;;;;;;;14.77;100.00;100967.22;10440902;28;20045;-79
2023/07/21 12:42:18;;;;;;;15.23;12.07;;;;;;;14.86;100.00;100958.69;10424441;28;20049;-77
2023/07/21 12:47:19;;;;;;;18.10;9.48;;;;;;;14.75;100.00;100950.47;10442767;28;20049;-77
2023/07/21 12:52:21;;;;;;;10.25;8.55;;;;;;;14.76;100.00;100941.72;10406125;28;20045;-77
2023/07/21 12:57:22;;;;;;;19.48;14.20;;;;;;;15.29;100.00;100943.31;10437537;28;20045;-77
2023/07/21 13:02:23;;;;;;;11.15;8.40;;;;;;;15.96;100.00;100942.56;10439447;28;20049;-79
2023/07/21 13:07:23;;;;;;;6.38;5.15;;;;;;;16.68;100.00;100924.97;10444068;28;20924;-78
2023/07/21 13:12:24;;;;;;;5.15;3.95;;;;;;;17.96;100.00;100927.63;10418759;28;20052;-77
2023/07/21 13:17:24;;;;;;;5.80;3.92;;;;;;;18.58;100.00;100920.75;10442839;28;20065;-77
2023/07/21 13:22:25;;;;;;;5.30;4.03;;;;;;;18.52;100.00;100918.00;10437020;28;20037;-77
2023/07/21 13:27:26;;;;;;;8.00;5.43;;;;;;;18.26;100.00;100926.44;10422336;28;20116;-77
2023/07/21 13:32:26;;;;;;;6.72;5.30;;;;;;;18.36;100.00;100925.72;10434376;28;20520;-77
2023/07/21 13:37:27;;;;;;;8.25;6.75;;;;;;;18.97;100.00;100937.28;10443977;28;20132;-77
2023/07/21 13:42:27;;;;;;;9.57;8.55;;;;;;;20.35;100.00;100931.78;10443713;28;20037;-77
2023/07/21 13:47:28;;;;;;;10.60;9.40;;;;;;;20.02;100.00;100930.59;10452344;28;20124;-78
2023/07/21 13:52:28;;;;;;;9.60;8.25;;;;;;;19.32;100.00;100936.88;10432591;28;20051;-77
2023/07/21 13:57:29;;;;;;;11.65;10.32;;;;;;;18.54;100.00;100950.72;10449498;28;20499;-77
2023/07/21 14:02:29;;;;;;;12.48;10.07;;;;;;;17.89;100.00;100945.19;10461864;28;20112;-77
2023/07/21 14:07:30;;;;;;;12.95;9.85;;;;;;;17.41;100.00;100946.88;10420810;28;20410;-77
2023/07/21 14:12:30;;;;;;;11.48;9.63;;;;;;;17.00;100.00;100956.59;10425233;28;20120;-79
2023/07/21 14:17:31;;;;;;;13.18;10.52;;;;;;;16.70;100.00;100976.13;10444309;28;20041;-77
2023/07/21 14:22:31;;;;;;;15.00;13.07;;;;;;;16.47;100.00;100979.94;10444756;28;20064;-77
2023/07/21 14:27:32;;;;;;;17.48;12.13;;;;;;;16.48;100.00;100987.00;10420018;28;20043;-77
2023/07/21 14:32:32;;;;;;;15.63;13.73;;;;;;;16.57;100.00;100992.53;10428608;28;20045;-77
2023/07/21 14:37:33;;;;;;;13.73;11.52;;;;;;;16.77;100.00;100987.75;10460324;28;20481;-78
2023/07/21 14:42:33;;;;;;;13.27;10.80;;;;;;;16.86;100.00;100982.69;10444576;28;20115;-78
2023/07/21 14:47:35;;;;;;;14.00;12.30;;;;;;;17.20;100.00;100987.00;10439940;28;20117;-77
2023/07/21 14:52:38;;;;;;;14.52;10.85;;;;;;;17.79;100.00;100967.03;10470999;28;20463;-78
2023/07/21 14:57:39;;;;;;;13.07;10.05;;;;;;;18.47;100.00;100966.53;10472709;28;20036;-78
2023/07/21 15:02:39;;;;;;;22.83;10.35;;;;;;;18.61;100.00;100950.88;10468485;28;20057;-78
2023/07/21 15:07:40;;;;;;;10.13;7.65;;;;;;;18.66;100.00;100950.91;10436458;28;20045;-78
2023/07/21 15:12:41;;;;;;;10.90;9.13;;;;;;;18.66;100.00;100945.63;10477239;28;20044;-79
2023/07/21 15:17:42;;;;;;;9.05;6.70;;;;;;;18.63;100.00;100948.22;10435013;28;20370;-79
2023/07/21 15:22:44;;;;;;;13.23;8.77;;;;;;;18.96;100.00;100954.03;10424265;28;20539;-78
2023/07/21 15:27:46;;;;;;;9.55;7.57;;;;;;;19.36;100.00;100965.22;10392576;28;20040;-77
2023/07/21 15:32:47;;;;;;;9.07;6.55;;;;;;;19.90;100.00;100952.59;10438425;28;20493;-78
2023/07/21 15:37:48;;;;;;;8.52;6.60;;;;;;;19.63;100.00;100953.16;10445680;28;20052;-78
2023/07/21 15:42:49;;;;;;;6.93;5.07;;;;;;;19.25;100.00;100957.09;10425078;28;20090;-79
2023/07/21 15:47:50;;;;;;;7.68;5.20;;;;;;;19.55;100.00;100949.53;10396865;28;20443;-78
2023/07/21 15:52:50;;;;;;;9.80;6.63;;;;;;;19.51;100.00;100959.19;10434562;28;20167;-78
2023/07/21 15:57:51;;;;;;;7.15;6.05;;;;;;;19.11;100.00;100956.03;10431283;28;20068;-78
2023/07/21 16:02:52;;;;;;;9.13;6.35;;;;;;;19.57;100.00;100953.09;10408161;28;20045;-78
2023/07/21 16:07:52;;;;;;;10.35;5.85;;;;;;;19.60;100.00;100963.75;10419365;28;20037;-79
2023/07/21 16:12:54;;;;;;;9.35;5.45;;;;;;;19.09;100.00;100963.97;10433913;28;20041;-80
2023/07/21 16:17:55;;;;;;;10.27;6.30;;;;;;;18.85;100.00;100967.13;10464197;28;20037;-79
2023/07/21 16:22:55;;;;;;;8.63;5.03;;;;;;;18.96;100.00;100960.22;10439906;28;20059;-79
2023/07/21 16:27:56;;;;;;;7.32;4.95;;;;;;;18.68;100.00;100969.53;10433806;28;20033;-79
2023/07/21 16:32:56;;;;;;;14.80;6.15;;;;;;;18.98;100.00;100973.53;10420259;28;20049;-80
2023/07/21 16:37:57;;;;;;;11.15;5.43;;;;;;;19.20;100.00;100965.00;10423566;28;22167;-77
2023/07/21 16:42:58;;;;;;;8.20;4.47;;;;;;;18.76;100.00;100979.34;10503012;28;20044;-77
2023/07/21 16:47:59;;;;;;;6.82;4.28;;;;;;;18.76;100.00;100978.47;10481973;28;20131;-77
2023/07/21 16:52:59;;;;;;;9.20;5.28;;;;;;;18.68;100.00;100985.44;10499429;28;20036;-77
2023/07/21 16:58:00;;;;;;;8.18;4.50;;;;;;;18.52;100.00;100995.78;10497673;28;20043;-77
2023/07/21 17:03:00;;;;;;;8.25;4.95;;;;;;;18.55;100.00;100994.91;10484714;28;20069;-81
2023/07/21 17:08:01;;;;;;;7.28;4.28;;;;;;;18.43;90.68;101006.22;10469321;28;20365;-78
2023/07/21 17:13:08;;;;;;;9.07;5.13;;;;;;;18.21;94.10;101008.47;10513421;28;20043;-78
2023/07/21 17:18:12;;;;;;;9.07;4.22;;;;;;;17.99;87.66;101023.94;10477737;28;20035;-82
2023/07/21 17:23:13;;;;;;;7.90;3.63;;;;;;;17.79;85.53;101023.50;10508015;28;20041;-78
2023/07/21 17:28:19;;;;;;;10.52;5.47;;;;;;;17.58;82.87;101032.78;10486281;28;20820;-78
2023/07/21 17:33:21;;;;;;;9.95;3.35;;;;;;;17.42;87.72;101030.66;10513273;28;20032;-80
2023/07/21 17:38:23;;;;;;;8.63;3.67;;;;;;;17.26;91.68;101034.75;10497775;28;20041;-79
2023/07/21 17:43:28;;;;;;;9.00;3.70;;;;;;;17.05;91.69;101038.66;10484018;28;20044;-79
2023/07/21 17:48:29;;;;;;;5.45;3.20;;;;;;;16.92;93.20;101042.72;10520063;28;20274;-78
2023/07/21 17:53:33;;;;;;;7.82;2.95;;;;;;;16.74;96.40;101043.16;10509366;28;20044;-78
2023/07/21 17:58:37;;;;;;;4.70;3.30;;;;;;;16.61;100.00;101044.59;10459102;28;20037;-78
2023/07/21 18:03:37;;;;;;;5.53;3.38;;;;;;;16.43;100.00;101052.94;10482012;28;20050;-78
2023/07/21 18:08:41;;;;;;;7.80;4.63;;;;;;;16.38;100.00;101055.44;10494245;28;20071;-78
2023/07/21 18:13:41;;;;;;;7.28;4.22;;;;;;;16.30;100.00;101059.63;10507838;28;20036;-78
2023/07/21 18:18:42;;;;;;;7.65;4.25;;;;;;;16.22;100.00;101058.53;10508796;28;20069;-77
2023/07/21 18:23:42;;;;;;;11.52;5.63;;;;;;;16.05;100.00;101061.59;10503168;28;20396;-79
2023/07/21 18:28:43;;;;;;;10.43;5.47;;;;;;;15.94;100.00;101061.31;10515403;28;20036;-78
2023/07/21 18:33:43;;;;;;;10.43;5.95;;;;;;;16.01;100.00;101065.00;10496775;28;20035;-79
2023/07/21 18:38:47;;;;;;;10.43;6.40;;;;;;;15.81;100.00;101073.19;10464069;28;20033;-80
2023/07/21 18:43:48;;;;;;;9.98;5.80;;;;;;;15.80;100.00;101079.31;10439630;28;20041;-78
2023/07/21 18:48:48;;;;;;;9.27;4.60;;;;;;;15.59;100.00;101092.78;10439272;28;20033;-79
2023/07/21 18:53:49;;;;;;;7.63;5.28;;;;;;;15.48;100.00;101095.06;10436762;28;20079;-79
2023/07/21 18:58:50;;;;;;;12.98;6.57;;;;;;;15.30;100.00;101098.03;10443429;28;20037;-79
2023/07/21 19:03:51;;;;;;;8.60;6.57;;;;;;;15.14;100.00;101096.63;10441920;28;20044;-79
2023/07/21 19:08:52;;;;;;;9.10;6.35;;;;;;;14.94;100.00;101099.50;10421894;28;20499;-78
2023/07/21 19:13:53;;;;;;;9.20;6.07;;;;;;;14.83;100.00;101101.78;10469452;28;20047;-79
2023/07/21 19:18:53;;;;;;;10.48;6.30;;;;;;;14.59;100.00;101103.56;10444069;28;20544;-78
2023/07/21 19:23:54;;;;;;;11.63;5.93;;;;;;;14.31;100.00;101108.72;10459350;28;20047;-79
2023/07/21 19:28:54;;;;;;;8.88;5.78;;;;;;;14.04;100.00;101122.66;10439928;28;20045;-79
2023/07/21 19:33:55;;;;;;;11.10;5.97;;;;;;;13.72;100.00;101134.59;10440161;28;20091;-79
2023/07/21 19:38:55;;;;;;;11.23;6.45;;;;;;;13.40;100.00;101132.44;10435132;28;20048;-79
2023/07/21 19:43:56;;;;;;;11.18;7.05;;;;;;;13.07;100.00;101148.59;10454687;28;20128;-79
2023/07/21 19:48:58;;;;;;;12.27;5.45;;;;;;;12.84;100.00;101159.03;10439101;28;20033;-79
2023/07/21 19:53:58;;;;;;;12.93;6.83;;;;;;;12.65;100.00;101174.81;10437359;28;20045;-80
2023/07/21 19:58:59;;;;;;;11.45;6.43;;;;;;;12.42;100.00;101177.31;10420458;28;20106;-79
2023/07/21 20:03:59;;;;;;;12.82;6.65;;;;;;;12.22;100.00;101192.19;10436896;28;20482;-79
2023/07/21 20:09:00;;;;;;;11.90;6.60;;;;;;;11.99;100.00;101194.59;10440212;28;20467;-79
2023/07/21 20:14:00;;;;;;;9.68;7.10;;;;;;;11.74;100.00;101201.28;10431680;28;21626;-79
2023/07/21 20:19:01;;;;;;;12.18;8.05;;;;;;;11.62;100.00;101198.06;10455072;28;20083;-79
2023/07/21 20:24:02;;;;;;;13.93;7.00;;;;;;;11.51;100.00;101205.41;10435371;28;20035;-79
2023/07/21 20:29:04;;;;;;;14.40;7.28;;;;;;;11.39;100.00;101218.81;10439535;28;20029;-78
2023/07/21 20:34:05;;;;;;;10.85;6.68;;;;;;;11.18;100.00;101213.38;10439576;28;20118;-79
2023/07/21 20:39:06;;;;;;;12.93;8.05;;;;;;;11.05;100.00;101223.22;10441519;28;20041;-79
2023/07/21 20:44:06;;;;;;;15.35;7.82;;;;;;;10.95;100.00;101236.66;10435148;28;20477;-78
2023/07/21 20:49:07;;;;;;;14.40;8.02;;;;;;;10.86;100.00;101234.47;10440745;28;20036;-78
2023/07/21 20:54:08;;;;;;;13.57;8.32;;;;;;;10.82;100.00;101240.38;10432880;28;20069;-79
2023/07/21 20:59:08;;;;;;;12.13;7.65;;;;;;;10.77;100.00;101234.00;10441740;28;20033;-79
2023/07/21 21:04:13;;;;;;;13.32;8.75;;;;;;;10.72;100.00;101244.22;10434720;28;20067;-80
2023/07/21 21:09:13;;;;;;;15.73;10.38;;;;;;;10.67;100.00;101245.69;10405106;28;20056;-79
2023/07/21 21:14:14;;;;;;;13.70;8.65;;;;;;;10.66;100.00;101255.28;10440172;28;20037;-77
2023/07/21 21:19:15;;;;;;;13.63;7.28;;;;;;;10.55;100.00;101259.03;10438418;28;20035;-79
2023/07/21 21:24:17;;;;;;;13.15;8.43;;;;;;;10.41;100.00;101263.50;10438340;28;20048;-78
2023/07/21 21:29:17;;;;;;;;;;;;;;;10.35;100.00;101261.44;10438557;28;20037;-79
2023/07/21 21:34:18;;;;;;;12.68;8.43;;;;;;;10.36;100.00;101273.69;10435201;28;19921;-79
2023/07/21 21:39:18;;;;;;;15.43;9.15;;;;;;;10.30;100.00;101273.34;10440015;28;20133;-78
2023/07/21 21:44:19;;;;;;;15.82;7.75;;;;;;;10.24;100.00;101270.41;10423532;28;20070;-78
2023/07/21 21:49:20;;;;;;;18.95;14.32;;;;;;;10.18;100.00;101263.09;10434324;28;20139;-78
2023/07/21 21:54:20;;;;;;;14.98;9.07;;;;;;;10.18;100.00;101260.47;10442628;28;20045;-79
2023/07/21 21:59:21;;;;;;;17.73;9.65;;;;;;;10.19;100.00;101262.28;10420156;28;20037;-78
2023/07/21 22:04:21;;;;;;;14.55;7.68;;;;;;;10.15;100.00;101265.53;10444651;28;20064;-79
2023/07/21 22:09:22;;;;;;;17.55;9.23;;;;;;;10.08;100.00;101272.16;10447321;28;20032;-79
2023/07/21 22:14:22;;;;;;;18.60;11.13;;;;;;;10.07;100.00;101265.13;10419305;28;20040;-80
2023/07/21 22:19:23;;;;;;;27.05;8.85;;;;;;;10.07;100.00;101279.91;10446648;28;20037;-79
2023/07/21 22:24:24;;;;;;;18.85;8.77;;;;;;;10.12;100.00;101281.06;10445009;28;20052;-79
2023/07/21 22:29:24;;;;;;;18.65;9.88;;;;;;;10.14;100.00;101282.03;10426261;28;20044;-80
2023/07/21 22:34:25;;;;;;;17.40;9.48;;;;;;;10.24;100.00;101273.91;10435909;28;20555;-81
2023/07/21 22:39:25;;;;;;;22.80;9.70;;;;;;;10.38;100.00;101281.63;10431573;28;20120;-80